GBYD/BJL METAR and TAF weather

Enter ICAO airport designator
Station Type Date Time Source
GBYD METAR 2023/01/29 17:00 UTC NOAA

GBYD 291700Z 28008KT CAVOK 32/07 Q1009


Station Type Date Time Source
GBYD Decoded METAR 2023/01/29 17:00 UTC NOAA

Banjul / Yundum, Gambia, The (GBYD) 13-21N 016-48W 36M
Jan 29, 2023 - 12:00 PM EST / 2023.01.29 1700 UTC
Wind: from the W (280 degrees) at 9 MPH (8 KT):0
Visibility: greater than 7 mile(s):0
Temperature: 89 F (32 C)
Dew Point: 44 F (7 C)
Relative Humidity: 21%
Pressure (altimeter): 29.80 in. Hg (1009 hPa)
ob: GBYD 291700Z 28008KT CAVOK 32/07 Q1009
cycle: 17

Station Type Date Time Source
GBYD TAF 2023/01/29 18:20 UTC NOAA

TAF GBYD 291700Z 2918/3024 30008KT CAVOK

Example: see airport list